Time;durP1;ratioP1;P1;durP2;ratioP2;P2;SDS_P1;SDS_P2;PMS_P1;PMS_P2;Temp;Humidity;BMP_temperature;BMP_pressure;BME280_temperature;BME280_humidity;BME280_pressure;Samples;Min_cycle;Max_cycle;Signal;HPM_P1;HPM_P2
2023/10/26 14:00:08;;;;;;;;;;;13.80;99.90;;;;;;5176271;27;20015;-74
2023/10/26 14:02:48;;;;;;;;;;;13.70;99.90;;;;;;5186621;27;19923;-74
2023/10/26 14:05:31;;;;;;;;;;;14.60;99.90;;;;;;5187115;27;19926;-74
2023/10/26 14:08:09;;;;;;;;;;;13.40;99.90;;;;;;5185134;27;19939;-73
2023/10/26 14:10:42;;;;;;;;;;;13.40;99.90;;;;;;5167659;27;19965;-75
2023/10/26 14:13:12;;;;;;;;;;;13.30;99.90;;;;;;5186685;27;19926;-74
2023/10/26 14:15:43;;;;;;;;;;;13.30;99.90;;;;;;4955295;27;5128595;-74
2023/10/26 14:18:19;;;;;;;;;;;13.20;99.90;;;;;;5154993;27;19971;-74
2023/10/26 14:20:45;;;;;;;;;;;13.20;99.90;;;;;;5148034;27;19933;-76
2023/10/26 14:23:10;;;;;;;;;;;13.20;99.90;;;;;;5167075;27;19923;-76
2023/10/26 14:25:36;;;;;;;;;;;13.20;99.90;;;;;;5135279;27;19933;-76
2023/10/26 14:28:03;;;;;;;;;;;13.20;99.90;;;;;;5132200;27;19927;-75
2023/10/26 14:30:28;;;;;;;;;;;12.40;99.90;;;;;;5147187;27;20389;-75
2023/10/26 14:32:55;;;;;;;;;;;13.10;99.90;;;;;;5132781;27;20050;-75
2023/10/26 14:35:22;;;;;;;;;;;13.00;99.90;;;;;;5134312;27;19996;-76
2023/10/26 14:37:50;;;;;;;;;;;13.00;99.90;;;;;;5137083;27;19927;-75
2023/10/26 14:40:18;;;;;;;;;;;12.90;99.90;;;;;;5167197;27;19927;-76
2023/10/26 14:42:44;;;;;;;;;;;12.90;99.90;;;;;;5131937;27;20063;-75
2023/10/26 14:45:11;;;;;;;;;;;12.90;99.90;;;;;;5145950;27;19926;-76
2023/10/26 14:47:36;;;;;;;;;;;12.80;99.90;;;;;;5138303;27;19938;-74
2023/10/26 14:50:10;;;;;;;;;;;12.70;99.90;;;;;;5129491;27;19934;-74
2023/10/26 14:52:36;;;;;;;;;;;12.70;99.90;;;;;;5119715;27;19938;-75
2023/10/26 14:55:39;;;;;;;;;;;12.60;99.90;;;;;;5162181;27;19977;-75
2023/10/26 14:58:21;;;;;;;;;;;12.50;99.90;;;;;;5163760;27;19970;-74
2023/10/26 15:01:13;;;;;;;;;;;12.40;99.90;;;;;;5137700;27;20483;-74
2023/10/26 15:04:00;;;;;;;;;;;12.30;99.90;;;;;;5155398;27;19932;-76
2023/10/26 15:06:32;;;;;;;;;;;12.10;99.90;;;;;;5131017;27;19927;-74
2023/10/26 15:08:58;;;;;;;;;;;12.00;99.90;;;;;;5137045;27;19922;-75
2023/10/26 15:11:24;;;;;;;;;;;11.90;99.90;;;;;;5154754;27;19945;-76
2023/10/26 15:13:49;;;;;;;;;;;11.80;99.90;;;;;;5124013;27;20006;-75
2023/10/26 15:16:15;;;;;;;;;;;11.70;99.90;;;;;;5129157;27;19977;-75
2023/10/26 15:18:41;;;;;;;;;;;11.60;99.90;;;;;;5139956;27;19948;-75
2023/10/26 15:21:08;;;;;;;;;;;11.50;99.90;;;;;;5139799;27;19946;-75
2023/10/26 15:23:35;;;;;;;;;;;11.50;99.90;;;;;;5138244;27;19924;-74
2023/10/26 15:26:03;;;;;;;;;;;11.40;99.90;;;;;;5134201;27;20328;-76
2023/10/26 15:28:34;;;;;;;;;;;11.30;99.90;;;;;;5152854;27;19927;-77
2023/10/26 15:31:02;;;;;;;;;;;11.20;99.90;;;;;;5119000;27;19923;-76
2023/10/26 15:33:48;;;;;;;;;;;11.10;99.90;;;;;;5152677;27;19923;-75
2023/10/26 15:36:17;;;;;;;;;;;11.00;99.90;;;;;;5140637;27;19934;-77
2023/10/26 15:38:53;;;;;;;;;;;11.00;99.90;;;;;;5135747;27;19923;-75
2023/10/26 15:41:19;;;;;;;;;;;10.90;99.90;;;;;;5153009;27;19930;-75
2023/10/26 15:43:45;;;;;;;;;;;10.80;99.90;;;;;;5136876;27;19938;-77
2023/10/26 15:46:14;;;;;;;;;;;10.70;99.90;;;;;;5089064;27;20135;-76
2023/10/26 15:48:48;;;;;;;;;;;10.70;99.90;;;;;;5137082;27;19962;-76
2023/10/26 15:51:15;;;;;;;;;;;10.60;99.90;;;;;;5133196;27;19962;-76
2023/10/26 15:53:52;;;;;;;;;;;10.60;99.90;;;;;;5140519;27;19930;-76
2023/10/26 15:56:23;;;;;;;;;;;10.50;99.90;;;;;;5153743;27;19927;-76
2023/10/26 15:58:53;;;;;;;;;;;10.50;99.90;;;;;;5124893;27;20051;-77
2023/10/26 16:01:37;;;;;;;;;;;10.40;99.90;;;;;;5117510;27;19934;-75
2023/10/26 16:04:29;;;;;;;;;;;10.40;99.90;;;;;;5135191;27;20425;-75
2023/10/26 16:07:04;;;;;;;;;;;10.30;99.90;;;;;;5158721;27;19929;-75
2023/10/26 16:09:33;;;;;;;;;;;10.20;99.90;;;;;;5139509;27;19933;-76
2023/10/26 16:12:02;;;;;;;;;;;10.20;99.90;;;;;;5158276;27;19927;-74
2023/10/26 16:14:35;;;;;;;;;;;10.20;99.90;;;;;;5124149;27;19939;-76
2023/10/26 16:17:10;;;;;;;;;;;10.10;99.90;;;;;;5153847;27;19942;-74
2023/10/26 16:19:41;;;;;;;;;;;10.10;99.90;;;;;;5120867;27;19984;-74
2023/10/26 16:22:08;;;;;;;;;;;10.00;99.90;;;;;;5138168;27;19974;-75
2023/10/26 16:24:33;;;;;;;;;;;10.00;99.90;;;;;;5080033;28;19936;-75
2023/10/26 16:26:59;;;;;;;;;;;10.00;99.90;;;;;;5060879;27;19928;-73
2023/10/26 16:29:28;;;;;;;;;;;9.90;99.90;;;;;;5081753;27;19935;-75
2023/10/26 16:34:45;;;;;;;;;;;9.90;99.90;;;;;;5044815;27;20047;-75
2023/10/26 16:37:23;;;;;;;;;;;9.80;99.90;;;;;;5074804;28;19927;-75
2023/10/26 16:39:51;;;;;;;;;;;9.80;99.90;;;;;;5060273;28;19934;-75
2023/10/26 16:43:02;;;;;;;;;;;9.80;99.90;;;;;;5074225;28;20136;-75
2023/10/26 16:45:36;;;;;;;;;;;9.80;99.90;;;;;;5089809;27;19935;-76
2023/10/26 16:48:26;;;;;;;;;;;9.70;99.90;;;;;;5072046;28;19928;-75
2023/10/26 16:51:05;;;;;;;;;;;9.60;99.90;;;;;;5060889;28;19927;-76
2023/10/26 16:53:32;;;;;;;;;;;9.60;99.90;;;;;;5076101;28;19928;-75
2023/10/26 16:56:05;;;;;;;;;;;9.60;99.90;;;;;;5119468;27;19938;-75
2023/10/26 16:58:54;;;;;;;;;;;9.50;99.90;;;;;;5116283;27;19927;-76
2023/10/26 17:01:51;;;;;;;;;;;9.50;99.90;;;;;;5120195;27;20377;-75
2023/10/26 17:04:19;;;;;;;;;;;9.50;99.90;;;;;;5148628;27;19937;-75
2023/10/26 17:06:45;;;;;;;;;;;9.40;99.90;;;;;;5099980;27;19927;-76
2023/10/26 17:09:19;;;;;;;;;;;9.40;99.90;;;;;;5137293;27;20101;-75
2023/10/26 17:11:46;;;;;;;;;;;9.30;99.90;;;;;;5135753;27;19927;-75
2023/10/26 17:14:12;;;;;;;;;;;9.40;99.90;;;;;;5118798;27;20493;-76
2023/10/26 17:16:39;;;;;;;;;;;9.20;99.90;;;;;;5109829;27;20017;-76
2023/10/26 17:19:06;;;;;;;;;;;9.30;99.90;;;;;;5158681;27;19926;-76
2023/10/26 17:21:32;;;;;;;;;;;9.30;99.90;;;;;;5146982;27;19950;-78
2023/10/26 17:24:12;;;;;;;;;;;9.30;99.90;;;;;;5134790;27;20785;-77
2023/10/26 17:27:01;;;;;;;;;;;9.20;99.90;;;;;;5151778;27;20004;-77
2023/10/26 17:29:28;;;;;;;;;;;9.20;99.90;;;;;;5132078;27;20445;-76
2023/10/26 17:32:24;;;;;;;;;;;9.20;99.90;;;;;;5122774;27;19975;-75
2023/10/26 17:34:51;;;;;;;;;;;9.20;99.90;;;;;;5150358;27;19931;-74
2023/10/26 17:38:01;;;;;;;;;;;9.10;99.90;;;;;;5151284;27;20407;-75
2023/10/26 17:40:43;;;;;;;;;;;9.10;99.90;;;;;;5138751;27;19973;-75
2023/10/26 17:43:25;;;;;;;;;;;9.10;99.90;;;;;;5121269;27;19927;-75
2023/10/26 17:45:56;;;;;;;;;;;9.10;99.90;;;;;;5117497;27;19934;-77
2023/10/26 17:48:30;;;;;;;;;;;9.10;99.90;;;;;;5122872;27;20285;-76
2023/10/26 17:51:12;;;;;;;;;;;9.10;99.90;;;;;;5150194;27;19933;-75
2023/10/26 17:53:47;;;;;;;;;;;9.00;99.90;;;;;;5123633;27;19965;-76
2023/10/26 17:56:32;;;;;;;;;;;9.00;99.90;;;;;;5131734;27;19931;-81
2023/10/26 17:59:01;;;;;;;;;;;9.00;99.90;;;;;;5150945;27;19937;-77
2023/10/26 18:01:28;;;;;;;;;;;9.00;99.90;;;;;;5130929;27;20010;-75
2023/10/26 18:04:01;;;;;;;;;;;9.00;99.90;;;;;;5129688;27;19930;-77
2023/10/26 18:06:33;;;;;;;;;;;9.00;99.90;;;;;;5134336;27;19926;-75
2023/10/26 18:09:08;;;;;;;;;;;9.00;99.90;;;;;;5135296;27;19985;-75
2023/10/26 18:11:35;;;;;;;;;;;9.00;99.90;;;;;;5147871;27;19975;-77
2023/10/26 18:14:03;;;;;;;;;;;8.90;99.90;;;;;;5134028;27;19922;-75
2023/10/26 18:16:29;;;;;;;;;;;8.90;99.90;;;;;;5108354;28;19943;-76
2023/10/26 18:18:59;;;;;;;;;;;8.90;99.90;;;;;;5107039;27;19928;-76
2023/10/26 18:21:26;;;;;;;;;;;8.90;99.90;;;;;;5091311;28;19928;-76
2023/10/26 18:23:58;;;;;;;;;;;8.90;99.90;;;;;;5092414;28;19932;-77
2023/10/26 18:26:24;;;;;;;;;;;8.90;99.90;;;;;;5090963;28;19928;-76
2023/10/26 18:28:57;;;;;;;;;;;8.80;99.90;;;;;;5092191;28;19923;-76
2023/10/26 18:31:29;;;;;;;;;;;8.80;99.90;;;;;;5095121;28;19973;-76
2023/10/26 18:34:00;;;;;;;;;;;8.80;99.90;;;;;;5109033;28;19934;-83
2023/10/26 18:36:26;;;;;;;;;;;8.80;99.90;;;;;;5114344;28;20120;-78
2023/10/26 18:38:57;;;;;;;;;;;8.80;99.90;;;;;;5096043;28;19924;-76
2023/10/26 18:44:40;;;;;;;;;;;8.70;99.90;;;;;;5114601;28;19934;-74
2023/10/26 18:47:06;;;;;;;;;;;8.70;99.90;;;;;;5094229;28;20306;-75
2023/10/26 18:49:35;;;;;;;;;;;8.60;99.90;;;;;;5095575;27;19962;-75
2023/10/26 18:52:05;;;;;;;;;;;8.60;99.90;;;;;;5059318;27;19935;-75
2023/10/26 18:54:38;;;;;;;;;;;8.50;99.90;;;;;;5140700;27;19949;-74
2023/10/26 18:57:16;;;;;;;;;;;8.10;99.90;;;;;;5133338;27;19939;-76
2023/10/26 19:00:02;;;;;;;;;;;8.40;99.90;;;;;;5102448;28;19912;-75
2023/10/26 19:02:35;;;;;;;;;;;8.40;99.90;;;;;;5076248;28;19928;-76
2023/10/26 19:05:24;;;;;;;;;;;7.30;99.90;;;;;;5114449;28;19922;-76
2023/10/26 19:08:20;;;;;;;;;;;8.30;99.90;;;;;;5084200;28;19911;-77
2023/10/26 19:11:15;;;;;;;;;;;8.20;99.90;;;;;;5116464;28;20558;-77
2023/10/26 19:14:08;;;;;;;;;;;8.20;99.90;;;;;;5087391;28;19997;-77
2023/10/26 19:16:41;;;;;;;;;;;8.10;99.90;;;;;;5098287;28;19928;-76
2023/10/26 19:19:33;;;;;;;;;;;8.10;99.90;;;;;;5080837;28;20442;-75
2023/10/26 19:22:30;;;;;;;;;;;8.10;99.90;;;;;;5067872;28;19932;-74
2023/10/26 19:25:18;;;;;;;;;;;8.10;99.90;;;;;;5053495;28;19928;-76
2023/10/26 19:28:21;;;;;;;;;;;9.10;99.90;;;;;;5099818;28;20378;-75
2023/10/26 19:31:11;;;;;;;;;;;8.00;99.90;;;;;;5087119;27;19979;-75
2023/10/26 19:34:15;;;;;;;;;;;8.00;99.90;;;;;;5123638;27;19926;-75
2023/10/26 19:37:02;;;;;;;;;;;8.00;99.90;;;;;;5126222;27;19938;-76
2023/10/26 19:40:26;;;;;;;;;;;8.00;99.90;;;;;;5152540;27;19988;-75
2023/10/26 19:46:44;;;;;;;;;;;8.00;99.90;;;;;;5152244;27;20378;-74
2023/10/26 19:49:16;;;;;;;;;;;8.00;99.90;;;;;;5117475;27;19970;-74
2023/10/26 19:51:52;;;;;;;;;;;8.00;99.90;;;;;;5105544;27;19963;-74
2023/10/26 19:54:28;;;;;;;;;;;8.00;99.90;;;;;;5134425;27;19927;-75
2023/10/26 19:56:59;;;;;;;;;;;8.00;99.90;;;;;;5136772;27;19928;-75
2023/10/26 19:59:40;;;;;;;;;;;8.00;99.90;;;;;;5107267;27;19923;-74
2023/10/26 20:02:55;;;;;;;;;;;8.00;99.90;;;;;;5104183;27;20490;-74
2023/10/26 20:08:52;;;;;;;;;;;8.00;99.90;;;;;;5154512;27;19929;-74
2023/10/26 20:11:32;;;;;;;;;;;8.00;99.90;;;;;;5095302;28;19931;-74
2023/10/26 20:14:15;;;;;;;;;;;8.00;99.90;;;;;;5056928;28;20478;-75
2023/10/26 20:17:15;;;;;;;;;;;8.10;99.90;;;;;;5055478;28;20462;-74
2023/10/26 20:19:50;;;;;;;;;;;8.20;99.90;;;;;;5025550;28;19924;-73
2023/10/26 20:25:13;;;;;;;;;;;8.30;99.90;;;;;;5057363;28;19933;-75
2023/10/26 20:27:56;;;;;;;;;;;8.30;99.90;;;;;;5045432;28;20008;-74
2023/10/26 20:30:55;;;;;;;;;;;8.40;99.90;;;;;;5004327;28;20016;-76
2023/10/26 20:33:26;;;;;;;;;;;8.40;99.90;;;;;;4942776;28;19981;-75
2023/10/26 20:36:02;;;;;;;;;;;8.50;99.90;;;;;;4927706;29;19930;-75
2023/10/26 20:38:47;;;;;;;;;;;8.50;99.90;;;;;;4939470;28;20002;-74
2023/10/26 20:42:00;;;;;;;;;;;8.50;99.90;;;;;;4870151;29;19935;-74
2023/10/26 20:44:40;;;;;;;;;;;8.50;99.90;;;;;;4926805;28;20539;-76
2023/10/26 20:47:42;;;;;;;;;;;8.50;99.90;;;;;;4942136;28;19959;-74
2023/10/26 20:51:00;;;;;;;;;;;8.50;99.90;;;;;;4944299;28;19930;-74
2023/10/26 20:53:46;;;;;;;;;;;9.70;99.90;;;;;;4932420;28;19934;-74
2023/10/26 20:56:23;;;;;;;;;;;8.50;99.90;;;;;;4941952;28;19977;-75
2023/10/26 20:58:49;;;;;;;;;;;8.50;99.90;;;;;;4958128;28;20359;-76
2023/10/26 21:01:39;;;;;;;;;;;8.50;99.90;;;;;;5035922;28;19932;-74
2023/10/26 21:04:08;;;;;;;;;;;8.50;99.90;;;;;;5114737;27;19926;-75
2023/10/26 21:06:59;;;;;;;;;;;8.50;99.90;;;;;;5125832;27;19934;-75
2023/10/26 21:09:41;;;;;;;;;;;8.50;99.90;;;;;;5126990;27;19927;-74
2023/10/26 21:15:25;;;;;;;;;;;8.60;99.90;;;;;;5131119;27;19941;-75
2023/10/26 21:18:35;;;;;;;;;;;8.60;99.90;;;;;;5118627;27;19924;-74
2023/10/26 21:21:57;;;;;;;;;;;8.60;99.90;;;;;;5131444;27;20064;-74
2023/10/26 21:24:47;;;;;;;;;;;8.60;99.90;;;;;;5080901;27;20085;-76
2023/10/26 21:27:15;;;;;;;;;;;8.60;99.90;;;;;;5117234;27;20316;-74
2023/10/26 21:29:44;;;;;;;;;;;8.70;99.90;;;;;;5113375;27;19927;-75
2023/10/26 21:32:36;;;;;;;;;;;8.70;99.90;;;;;;5117680;27;21136;-77
2023/10/26 21:35:42;;;;;;;;;;;8.70;99.90;;;;;;5101801;27;19923;-75
2023/10/26 21:42:19;;;;;;;;;;;8.70;99.90;;;;;;5142776;27;19938;-75
2023/10/26 21:45:39;;;;;;;;;;;8.70;99.90;;;;;;5144508;27;20498;-75
2023/10/26 21:48:14;;;;;;;;;;;8.70;99.90;;;;;;5145196;27;19938;-76
2023/10/26 21:51:12;;;;;;;;;;;8.60;99.90;;;;;;5128504;27;19930;-76
2023/10/26 21:54:54;;;;;;;;;;;8.60;99.90;;;;;;5145232;27;20110;-76
2023/10/26 21:57:31;;;;;;;;;;;8.60;99.90;;;;;;5147906;27;20010;-75
2023/10/26 22:00:27;;;;;;;;;;;8.60;99.90;;;;;;5069666;28;19963;-75
2023/10/26 22:03:27;;;;;;;;;;;8.60;99.90;;;;;;5134707;27;20041;-77
2023/10/26 22:06:28;;;;;;;;;;;8.60;99.90;;;;;;5103084;27;20377;-75
2023/10/26 22:12:02;;;;;;;;;;;8.60;99.90;;;;;;5098352;27;19927;-76
2023/10/26 22:14:50;;;;;;;;;;;8.60;99.90;;;;;;5149655;27;19921;-75
2023/10/26 22:21:21;;;;;;;;;;;8.60;99.90;;;;;;5152157;27;19975;-76
2023/10/26 22:24:23;;;;;;;;;;;8.60;99.90;;;;;;5153510;27;19927;-75
2023/10/26 22:30:34;;;;;;;;;;;8.60;99.90;;;;;;5153244;27;20058;-76
2023/10/26 22:33:37;;;;;;;;;;;8.60;99.90;;;;;;5111261;27;19923;-76
2023/10/26 22:39:33;;;;;;;;;;;8.70;99.90;;;;;;5138966;27;19927;-75
2023/10/26 22:42:38;;;;;;;;;;;8.70;99.90;;;;;;5135641;27;19991;-77
2023/10/26 22:45:08;;;;;;;;;;;7.70;99.90;;;;;;5148889;27;20029;-76
2023/10/26 22:48:19;;;;;;;;;;;8.70;99.90;;;;;;5126685;27;20388;-75
2023/10/26 22:51:16;;;;;;;;;;;8.70;99.90;;;;;;5151106;27;19927;-76
2023/10/26 22:57:14;;;;;;;;;;;8.70;99.90;;;;;;5153718;27;20549;-75
2023/10/26 23:06:22;;;;;;;;;;;;;;;;;;;;;
2023/10/26 23:09:32;;;;;;;;;;;8.80;99.90;;;;;;5127557;27;19926;-75
2023/10/26 23:15:38;;;;;;;;;;;7.70;99.90;;;;;;5073514;28;20907;-76
2023/10/26 23:18:44;;;;;;;;;;;8.80;99.90;;;;;;5074096;28;19938;-76
2023/10/26 23:21:40;;;;;;;;;;;8.80;99.90;;;;;;5074836;28;19924;-76
2023/10/26 23:24:26;;;;;;;;;;;8.80;99.90;;;;;;5045257;28;20357;-75
2023/10/26 23:30:53;;;;;;;;;;;8.80;99.90;;;;;;5075270;28;19923;-76
2023/10/26 23:36:47;;;;;;;;;;;8.80;99.90;;;;;;5077744;28;19927;-75
2023/10/26 23:43:56;;;;;;;;;;;8.90;99.90;;;;;;5089336;28;20011;-75
2023/10/26 23:46:33;;;;;;;;;;;8.90;99.90;;;;;;5058868;28;19974;-76
2023/10/26 23:52:19;;;;;;;;;;;8.90;99.90;;;;;;5051038;28;20422;-75
2023/10/26 23:54:45;;;;;;;;;;;8.90;99.90;;;;;;5057353;27;20490;-76
